Página principal
METAR-TAF:

METAR-TAF

Aeroportos :

Aeroporto Internacional de Xangai Pudong

Xangai-Pudong, China

latitude: 31-07N, longitude: 121-46E, altura: 4 m

Observação actual do tempo

O boletim foi feito há 17 minutos, às 16:30 UTC
Vento 8 kt de nordeste
Temperatura 25°C
Humidade 74%
Pressão 1018 hPa
Visibilidade 10 km ou mais
Nuvens dispersasa uma altura de 2300 ft

METAR: ZSPD 231630Z 05004MPS 9999 SCT023 25/20 Q1018 NOSIG

Hora: 00:47 (16:47 UTC)

Previsão

O boletim foi feito há 7 horas e 36 minutos, às 09:11 UTC
Previsão válida de 23 às 12 UTC a 24 às 12 UTC
Vento 8 kt de nordeste
Visibilidade: 6000 m
Nuvens dispersasa uma altura de 2000 ft

TAF: ZSPD 230911Z 2312/2412 04004MPS 6000 SCT020 TX28/2406Z TN21/2321Z

Observações e previsões do tempo de mais de 4000 aeroportos (mensagens METAR e TAF).

As estações disponíveis são os pontos amarelos e vermelhos sobre o mapa.

Mova o rato sobre o mapa para ver o nome da estação.

Depois clique no ponto para visualizar as observações e previsões meteorológicas.

Para alterar o mapa : clique nos botões verdes com uma cruz preta para aumentar o zoom; no botão verde com uma pitada de zoom; ou nas setas verdes para mapas adjacentes.


METAR-TAF: